FMNM/MJN METAR and TAF weather

Enter ICAO airport designator
Station Type Date Time Source
FMNM METAR 2020/02/21 15:00 UTC NOAA

FMNM 211500Z 01007KT 9999 FEW020CB 29/25 Q1009 NOSIG


Station Type Date Time Source
FMNM Decoded METAR 2020/02/21 15:00 UTC NOAA

Majunga, Madagascar (FMNM) 15-40S 046-21E 18M
Feb 21, 2020 - 10:00 AM EST / 2020.02.21 1500 UTC
Wind: from the N (010 degrees) at 8 MPH (7 KT):0
Visibility: greater than 7 mile(s):0
Sky conditions: mostly clear
Weather: Cumulonimbus clouds observed
Temperature: 84 F (29 C)
Dew Point: 77 F (25 C)
Relative Humidity: 79%
Pressure (altimeter): 29.80 in. Hg (1009 hPa)
ob: FMNM 211500Z 01007KT 9999 FEW020CB 29/25 Q1009 NOSIG
cycle: 15

Station Type Date Time Source
FMNM TAF 2020/02/21 12:05 UTC NOAA

TAF FMNM 211100Z 2112/2212 02012KT 9999 SCT020CB SCT040 PROB40
TEMPO 2112/2123 4000 TSRA
TEMPO 2200/2212 4500 RA

Example: see airport list